createdAt,value
2024-01-11T00:01:13.950Z,58.38
2024-01-11T00:03:46.166Z,58.44
2024-01-11T00:06:18.114Z,58.24
2024-01-11T00:08:50.099Z,57.64
2024-01-11T00:11:22.069Z,57.61
2024-01-11T00:13:54.230Z,57.69
2024-01-11T00:16:26.072Z,57.88
2024-01-11T00:18:58.139Z,59.63
2024-01-11T00:21:30.072Z,59.11
2024-01-11T00:24:01.988Z,59.97
2024-01-11T00:26:34.312Z,59.85
2024-01-11T00:29:06.771Z,58.93
2024-01-11T00:31:39.346Z,59.31
2024-01-11T00:34:11.565Z,58.96
2024-01-11T00:36:43.580Z,58.87
2024-01-11T00:39:15.546Z,60.67
2024-01-11T00:41:47.441Z,58.54
2024-01-11T00:44:19.736Z,59.39
2024-01-11T00:46:52.142Z,58.90
2024-01-11T00:49:24.316Z,59.74
2024-01-11T00:51:56.876Z,60.05
2024-01-11T00:54:28.649Z,59.96
2024-01-11T00:57:00.847Z,59.65
2024-01-11T00:59:32.524Z,59.90
2024-01-11T01:02:04.585Z,60.95
2024-01-11T01:04:39.914Z,58.65
2024-01-11T01:07:11.919Z,58.45
2024-01-11T01:09:43.978Z,58.25
2024-01-11T01:12:16.089Z,59.47
2024-01-11T01:14:48.018Z,61.45
2024-01-11T01:17:19.891Z,60.82
2024-01-11T01:19:51.706Z,60.25
2024-01-11T01:22:23.580Z,59.37
2024-01-11T01:24:55.825Z,58.79
2024-01-11T01:27:28.109Z,59.30
2024-01-11T01:29:59.988Z,60.31
2024-01-11T01:32:32.902Z,61.61
2024-01-11T01:35:05.087Z,61.60
2024-01-11T01:37:37.041Z,61.66
2024-01-11T01:40:11.094Z,61.18
2024-01-11T01:42:46.500Z,62.41
2024-01-11T01:45:19.154Z,60.42
2024-01-11T01:47:51.017Z,60.09
2024-01-11T01:50:23.773Z,59.69
2024-01-11T01:52:57.274Z,60.11
2024-01-11T01:55:30.976Z,59.64
2024-01-11T01:58:05.769Z,59.36
2024-01-11T02:00:37.458Z,59.89
2024-01-11T02:03:10.847Z,58.90
2024-01-11T02:05:42.880Z,58.75
2024-01-11T02:08:21.879Z,60.11
2024-01-11T02:10:54.821Z,59.38
2024-01-11T02:13:26.580Z,58.92
2024-01-11T02:15:58.443Z,58.94
2024-01-11T02:18:30.955Z,60.57
2024-01-11T02:21:03.924Z,61.19
2024-01-11T02:23:38.822Z,60.58
2024-01-11T02:26:11.278Z,61.72
2024-01-11T02:28:47.395Z,61.07
2024-01-11T02:31:19.157Z,60.04
2024-01-11T02:33:51.712Z,59.68
2024-01-11T02:36:23.940Z,61.14
2024-01-11T02:38:57.197Z,61.07
2024-01-11T02:41:30.160Z,62.08
2024-01-11T02:44:02.885Z,62.42
2024-01-11T02:46:35.243Z,60.58
2024-01-11T02:49:07.532Z,60.29
2024-01-11T02:51:39.650Z,60.59
2024-01-11T02:54:11.491Z,63.48
2024-01-11T02:56:43.391Z,62.30
2024-01-11T02:59:15.622Z,62.46
2024-01-11T03:01:47.519Z,63.25
2024-01-11T03:04:19.168Z,61.97
2024-01-11T03:06:50.928Z,63.58
2024-01-11T03:09:23.636Z,62.17
2024-01-11T03:11:55.719Z,62.05
2024-01-11T03:14:27.701Z,61.57
2024-01-11T03:16:59.547Z,60.88
2024-01-11T03:19:31.434Z,60.62
2024-01-11T03:22:07.415Z,60.81
2024-01-11T03:24:41.838Z,61.44
2024-01-11T03:27:13.514Z,61.95
2024-01-11T03:29:45.309Z,62.28
2024-01-11T03:32:17.179Z,62.98
2024-01-11T03:34:49.003Z,62.67
2024-01-11T03:37:20.705Z,62.79
2024-01-11T03:39:52.819Z,62.91
2024-01-11T03:42:24.984Z,61.66
2024-01-11T03:44:56.817Z,61.29
2024-01-11T03:47:28.614Z,60.90
2024-01-11T03:50:00.793Z,60.93
2024-01-11T03:52:32.597Z,60.52
2024-01-11T03:55:04.683Z,61.05
2024-01-11T03:57:36.539Z,60.77
2024-01-11T04:00:11.973Z,60.36
2024-01-11T04:02:43.831Z,60.60
2024-01-11T04:05:16.799Z,60.09
2024-01-11T04:07:48.628Z,60.57
2024-01-11T04:10:21.256Z,60.35
2024-01-11T04:12:53.222Z,60.50
2024-01-11T04:15:24.833Z,60.79
2024-01-11T04:17:57.250Z,61.09
2024-01-11T04:20:29.500Z,61.34
2024-01-11T04:23:01.241Z,61.64
2024-01-11T04:25:33.077Z,61.18
2024-01-11T04:28:05.093Z,60.84
2024-01-11T04:30:36.883Z,60.83
2024-01-11T04:33:08.728Z,62.68
2024-01-11T04:35:41.173Z,61.05
2024-01-11T04:38:13.103Z,61.49
2024-01-11T04:40:45.182Z,62.16
2024-01-11T04:43:17.233Z,62.20
2024-01-11T04:45:48.860Z,62.94
2024-01-11T04:48:21.403Z,62.59
2024-01-11T04:50:53.936Z,62.90
2024-01-11T04:53:26.510Z,62.52
2024-01-11T04:55:58.631Z,62.86
2024-01-11T04:58:30.370Z,62.72
2024-01-11T05:01:02.917Z,61.78
2024-01-11T05:03:35.071Z,61.61
2024-01-11T05:06:07.855Z,60.74
2024-01-11T05:08:39.978Z,60.62
2024-01-11T05:11:16.946Z,60.80
2024-01-11T05:13:49.464Z,60.44
2024-01-11T05:16:24.614Z,60.42
2024-01-11T05:18:57.916Z,60.76
2024-01-11T05:21:30.060Z,60.49
2024-01-11T05:24:02.073Z,60.65
2024-01-11T05:26:33.954Z,60.38
2024-01-11T05:29:06.795Z,60.54
2024-01-11T05:31:39.234Z,60.71
2024-01-11T05:34:13.454Z,61.21
2024-01-11T05:36:45.451Z,62.13
2024-01-11T05:39:18.213Z,62.32
2024-01-11T05:41:50.063Z,62.35
2024-01-11T05:44:21.731Z,62.44
2024-01-11T05:46:53.436Z,63.85
2024-01-11T05:49:25.117Z,61.68
2024-01-11T05:51:57.413Z,61.84
2024-01-11T05:54:29.411Z,62.40
2024-01-11T05:57:01.109Z,62.70
2024-01-11T05:59:33.097Z,63.13
2024-01-11T06:02:05.550Z,62.89
2024-01-11T06:04:37.386Z,63.41
2024-01-11T06:07:09.102Z,63.03
2024-01-11T06:09:40.758Z,62.57
2024-01-11T06:12:12.923Z,61.76
2024-01-11T06:14:44.739Z,61.25
2024-01-11T06:17:16.957Z,61.93
2024-01-11T06:19:48.796Z,61.43
2024-01-11T06:22:20.770Z,61.26
2024-01-11T06:24:52.703Z,61.78
2024-01-11T06:27:24.409Z,62.10
2024-01-11T06:29:56.232Z,62.57
2024-01-11T06:32:28.615Z,61.84
2024-01-11T06:35:00.436Z,62.95
2024-01-11T06:37:32.362Z,63.18
2024-01-11T06:40:04.979Z,63.60
2024-01-11T06:42:37.446Z,63.96
2024-01-11T06:45:11.504Z,62.97
2024-01-11T06:47:43.679Z,63.55
2024-01-11T06:50:16.044Z,62.73
2024-01-11T06:52:48.140Z,63.47
2024-01-11T06:55:20.105Z,63.21
2024-01-11T06:57:52.091Z,62.69
2024-01-11T07:00:24.503Z,64.01
2024-01-11T07:02:56.278Z,63.48
2024-01-11T07:05:28.208Z,63.79
2024-01-11T07:08:00.380Z,63.54
2024-01-11T07:10:33.337Z,63.42
2024-01-11T07:13:06.166Z,63.41
2024-01-11T07:15:38.120Z,62.75
2024-01-11T07:18:10.334Z,62.34
2024-01-11T07:20:42.391Z,61.99
2024-01-11T07:23:14.955Z,61.65
2024-01-11T07:25:47.036Z,61.66
2024-01-11T07:28:20.813Z,61.79
2024-01-11T07:30:52.626Z,62.13
2024-01-11T07:33:24.772Z,61.70
2024-01-11T07:35:57.130Z,62.29
2024-01-11T07:38:29.015Z,62.51
2024-01-11T07:41:00.768Z,61.86
2024-01-11T07:43:45.552Z,61.69
2024-01-11T07:46:33.148Z,62.16
2024-01-11T07:49:11.484Z,61.95
2024-01-11T07:51:43.204Z,61.62
2024-01-11T07:54:14.991Z,61.80
2024-01-11T07:56:46.924Z,62.07
2024-01-11T07:59:18.936Z,62.06
2024-01-11T08:01:51.053Z,61.78
2024-01-11T08:04:23.051Z,62.18
2024-01-11T08:06:55.154Z,63.00
2024-01-11T08:09:27.365Z,62.43
2024-01-11T08:11:59.609Z,62.14
2024-01-11T08:14:31.567Z,62.49
2024-01-11T08:17:05.972Z,62.72
2024-01-11T08:19:38.750Z,63.35
2024-01-11T08:22:11.073Z,63.06
2024-01-11T08:24:43.204Z,63.59
2024-01-11T08:27:16.697Z,63.44
2024-01-11T08:29:49.410Z,62.62
2024-01-11T08:32:28.757Z,61.68
2024-01-11T08:35:05.731Z,60.77
2024-01-11T08:37:37.992Z,60.98
2024-01-11T08:40:12.395Z,60.67
2024-01-11T08:42:44.151Z,60.23
2024-01-11T08:45:19.588Z,59.96
2024-01-11T08:47:51.776Z,59.83
2024-01-11T08:50:24.798Z,59.96
2024-01-11T08:52:57.564Z,59.60
2024-01-11T08:55:29.953Z,59.64
2024-01-11T08:58:01.856Z,59.33
2024-01-11T09:00:33.788Z,59.24
2024-01-11T09:03:06.724Z,59.57
2024-01-11T09:05:39.824Z,55.34
2024-01-11T09:08:11.890Z,53.98
2024-01-11T09:10:44.077Z,51.03
2024-01-11T09:13:16.740Z,46.56
2024-01-11T09:15:48.932Z,47.74
2024-01-11T09:18:21.201Z,45.69
2024-01-11T09:20:54.226Z,45.65
2024-01-11T09:23:26.175Z,42.01
2024-01-11T09:25:58.537Z,37.04
2024-01-11T09:28:30.823Z,36.52
2024-01-11T09:31:03.419Z,34.37
2024-01-11T09:33:35.356Z,32.64
2024-01-11T09:36:09.845Z,32.40
2024-01-11T09:38:41.912Z,31.85
2024-01-11T09:41:16.141Z,35.63
2024-01-11T09:43:50.354Z,30.55
2024-01-11T09:46:23.958Z,29.97
2024-01-11T09:48:57.971Z,30.82
2024-01-11T09:51:31.622Z,28.58
2024-01-11T09:54:03.977Z,29.54
2024-01-11T09:56:37.286Z,27.64
2024-01-11T09:59:11.949Z,30.91
2024-01-11T10:01:45.805Z,30.05
2024-01-11T10:04:18.738Z,33.66
2024-01-11T10:06:52.307Z,32.88
2024-01-11T10:09:25.216Z,31.87
2024-01-11T10:11:57.206Z,32.29
2024-01-11T10:14:29.236Z,30.10
2024-01-11T10:17:01.390Z,29.75
2024-01-11T10:19:33.534Z,28.88
2024-01-11T10:22:07.935Z,28.42
2024-01-11T10:24:39.933Z,28.36
2024-01-11T10:27:13.944Z,26.15
2024-01-11T10:29:46.359Z,25.02
2024-01-11T10:32:18.986Z,23.66
2024-01-11T10:34:53.183Z,24.18
2024-01-11T10:37:25.425Z,25.13
2024-01-11T10:40:00.136Z,22.38
2024-01-11T10:42:38.446Z,23.19
2024-01-11T10:45:17.004Z,22.68
2024-01-11T10:47:55.973Z,23.22
2024-01-11T10:50:32.523Z,21.66
2024-01-11T10:53:14.872Z,21.35
2024-01-11T10:55:48.486Z,21.01
2024-01-11T10:58:22.159Z,20.88
2024-01-11T11:00:56.652Z,21.98
2024-01-11T11:03:29.736Z,19.98
2024-01-11T11:06:02.807Z,20.95
2024-01-11T11:08:35.533Z,21.15
2024-01-11T11:11:09.792Z,21.42
2024-01-11T11:13:40.863Z,21.10
2024-01-11T11:16:12.743Z,20.28
2024-01-11T11:18:44.871Z,21.52
2024-01-11T11:21:17.430Z,21.01
2024-01-11T11:23:51.569Z,21.18
2024-01-11T11:26:23.454Z,22.99
2024-01-11T11:28:55.812Z,21.77
2024-01-11T11:31:44.001Z,22.01
2024-01-11T11:34:17.943Z,21.31
2024-01-11T11:36:56.023Z,22.39
2024-01-11T11:39:28.062Z,22.99
2024-01-11T11:42:02.466Z,21.61
2024-01-11T11:44:34.596Z,22.03
2024-01-11T11:47:20.636Z,21.79
2024-01-11T11:50:07.586Z,22.04
2024-01-11T11:52:40.651Z,21.48
2024-01-11T11:55:14.540Z,21.65
2024-01-11T11:57:47.695Z,22.83
2024-01-11T12:00:21.231Z,23.00
2024-01-11T12:02:56.783Z,22.74
2024-01-11T12:05:29.443Z,23.59
2024-01-11T12:08:02.005Z,23.47
2024-01-11T12:10:33.908Z,24.10
2024-01-11T12:13:06.220Z,24.12
2024-01-11T12:15:38.278Z,24.45
2024-01-11T12:18:10.643Z,24.76
2024-01-11T12:20:43.271Z,25.35
2024-01-11T12:23:15.883Z,26.35
2024-01-11T12:25:48.428Z,27.42
2024-01-11T12:28:20.572Z,28.30
2024-01-11T12:30:53.284Z,28.89
2024-01-11T12:33:26.156Z,29.12
2024-01-11T12:35:59.344Z,30.49
2024-01-11T12:38:34.620Z,30.99
2024-01-11T12:41:08.579Z,31.64
2024-01-11T12:43:40.485Z,32.00
2024-01-11T12:46:12.881Z,31.69
2024-01-11T12:48:45.460Z,32.46
2024-01-11T12:51:21.853Z,32.76
2024-01-11T12:53:56.479Z,32.80
2024-01-11T12:56:28.939Z,32.72
2024-01-11T12:59:10.966Z,32.95
2024-01-11T13:01:43.223Z,33.65
2024-01-11T13:04:16.289Z,34.66
2024-01-11T13:06:49.675Z,33.85
2024-01-11T13:09:21.899Z,34.18
2024-01-11T13:11:54.346Z,35.80
2024-01-11T13:14:26.341Z,34.59
2024-01-11T13:16:58.860Z,35.82
2024-01-11T13:19:31.260Z,35.11
2024-01-11T13:22:03.943Z,36.80
2024-01-11T13:24:37.267Z,36.20
2024-01-11T13:27:09.259Z,37.21
2024-01-11T13:29:41.104Z,38.00
2024-01-11T13:32:12.958Z,37.49
2024-01-11T13:34:47.127Z,36.10
2024-01-11T13:37:20.026Z,36.28
2024-01-11T13:39:52.046Z,37.78
2024-01-11T13:42:23.748Z,36.82
2024-01-11T13:44:55.693Z,36.96
2024-01-11T13:47:27.863Z,36.04
2024-01-11T13:50:02.818Z,36.49
2024-01-11T13:52:35.270Z,36.22
2024-01-11T13:55:08.261Z,36.34
2024-01-11T13:57:40.635Z,36.50
2024-01-11T14:00:14.504Z,36.15
2024-01-11T14:02:46.580Z,36.44
2024-01-11T14:05:19.654Z,35.90
2024-01-11T14:07:55.793Z,35.54
2024-01-11T14:10:28.814Z,35.93
2024-01-11T14:13:01.150Z,36.06
2024-01-11T14:15:33.384Z,36.85
2024-01-11T14:18:06.355Z,36.83
2024-01-11T14:20:38.439Z,36.61
2024-01-11T14:23:10.453Z,36.83
2024-01-11T14:25:43.110Z,36.73
2024-01-11T14:28:15.405Z,36.38
2024-01-11T14:30:47.381Z,36.75
2024-01-11T14:33:21.335Z,36.87
2024-01-11T14:35:54.403Z,36.82
2024-01-11T14:38:27.357Z,37.12
2024-01-11T14:40:59.519Z,36.95
2024-01-11T14:43:31.408Z,38.26
2024-01-11T14:46:04.324Z,37.23
2024-01-11T14:48:36.466Z,38.87
2024-01-11T14:51:09.049Z,39.79
2024-01-11T14:53:42.045Z,39.55
2024-01-11T14:56:15.053Z,38.95
2024-01-11T14:58:47.178Z,39.55
2024-01-11T15:01:19.377Z,40.09
2024-01-11T15:03:51.428Z,40.43
2024-01-11T15:06:23.793Z,40.46
2024-01-11T15:08:56.213Z,40.37
2024-01-11T15:11:28.835Z,41.84
2024-01-11T15:14:01.092Z,42.66
2024-01-11T15:16:33.935Z,41.80
2024-01-11T15:19:07.059Z,41.63
2024-01-11T15:21:42.539Z,42.95
2024-01-11T15:24:16.655Z,42.67
2024-01-11T15:26:50.078Z,43.65
2024-01-11T15:29:23.060Z,42.93
2024-01-11T15:31:55.453Z,44.44
2024-01-11T15:34:27.619Z,44.63
2024-01-11T15:37:00.157Z,44.12
2024-01-11T15:39:33.426Z,45.23
2024-01-11T15:42:07.551Z,44.98
2024-01-11T15:44:41.201Z,45.60
2024-01-11T15:47:13.242Z,43.76
2024-01-11T15:49:45.713Z,45.06
2024-01-11T15:52:17.778Z,45.60
2024-01-11T15:54:50.278Z,45.67
2024-01-11T15:57:23.164Z,43.93
2024-01-11T15:59:55.532Z,45.04
2024-01-11T16:02:27.522Z,48.28
2024-01-11T16:04:59.874Z,46.67
2024-01-11T16:07:31.845Z,47.74
2024-01-11T16:10:04.011Z,47.04
2024-01-11T16:12:35.925Z,47.45
2024-01-11T16:15:09.552Z,46.35
2024-01-11T16:17:41.671Z,48.25
2024-01-11T16:20:16.123Z,47.91
2024-01-11T16:22:51.885Z,47.17
2024-01-11T16:25:24.712Z,49.09
2024-01-11T16:27:56.957Z,46.68
2024-01-11T16:30:29.375Z,49.13
2024-01-11T16:33:02.560Z,48.71
2024-01-11T16:35:44.707Z,49.26
2024-01-11T16:38:22.293Z,48.30
2024-01-11T16:40:55.768Z,47.90
2024-01-11T16:43:28.255Z,48.34
2024-01-11T16:46:00.256Z,50.67
2024-01-11T16:48:32.394Z,50.52
2024-01-11T16:51:04.920Z,51.32
2024-01-11T16:53:36.885Z,51.63
2024-01-11T16:56:10.212Z,50.54
2024-01-11T16:58:43.225Z,51.35
2024-01-11T17:01:15.664Z,53.73
2024-01-11T17:03:49.816Z,51.40
2024-01-11T17:06:22.685Z,50.14
2024-01-11T17:08:54.720Z,50.61
2024-01-11T17:11:27.032Z,48.74
2024-01-11T17:13:59.188Z,50.89
2024-01-11T17:16:31.334Z,50.70
2024-01-11T17:19:04.003Z,50.63
2024-01-11T17:21:36.500Z,49.75
2024-01-11T17:24:16.981Z,48.86
2024-01-11T17:26:49.061Z,48.42
2024-01-11T17:29:22.090Z,48.12
2024-01-11T17:31:54.521Z,47.80
2024-01-11T17:34:26.489Z,47.92
2024-01-11T17:36:58.709Z,48.12
2024-01-11T17:39:31.461Z,48.36
2024-01-11T17:42:07.506Z,48.09
2024-01-11T17:44:41.680Z,48.33
2024-01-11T17:47:13.817Z,48.71
2024-01-11T17:49:45.969Z,49.20
2024-01-11T17:52:18.965Z,49.59
2024-01-11T17:54:51.156Z,50.60
2024-01-11T17:57:24.627Z,51.33
2024-01-11T17:59:56.742Z,51.41
2024-01-11T18:02:33.736Z,51.57
2024-01-11T18:05:06.989Z,52.36
2024-01-11T18:07:39.230Z,51.91
2024-01-11T18:10:11.941Z,53.06
2024-01-11T18:12:44.177Z,53.20
2024-01-11T18:15:16.508Z,53.97
2024-01-11T18:17:48.822Z,54.48
2024-01-11T18:20:21.433Z,56.47
2024-01-11T18:22:53.562Z,54.57
2024-01-11T18:25:25.635Z,54.40
2024-01-11T18:27:58.006Z,55.91
2024-01-11T18:30:30.525Z,55.83
2024-01-11T18:33:03.248Z,57.74
2024-01-11T18:35:35.392Z,59.09
2024-01-11T18:38:07.716Z,56.64
2024-01-11T18:40:43.022Z,57.58
2024-01-11T18:43:15.186Z,58.22
2024-01-11T18:45:48.821Z,56.70
2024-01-11T18:48:23.331Z,58.55
2024-01-11T18:50:55.930Z,57.12
2024-01-11T18:53:28.051Z,57.59
2024-01-11T18:56:00.702Z,58.69
2024-01-11T18:58:33.292Z,57.63
2024-01-11T19:01:09.387Z,57.75
2024-01-11T19:03:42.142Z,57.79
2024-01-11T19:06:20.778Z,58.25
2024-01-11T19:08:51.390Z,58.21
2024-01-11T19:11:26.134Z,56.85
2024-01-11T19:14:00.937Z,59.76
2024-01-11T19:16:36.613Z,60.21
2024-01-11T19:19:12.099Z,58.25
2024-01-11T19:21:47.687Z,56.68
2024-01-11T19:24:20.214Z,58.30
2024-01-11T19:26:52.696Z,58.13
2024-01-11T19:29:26.168Z,58.68
2024-01-11T19:32:02.352Z,59.25
2024-01-11T19:34:37.233Z,58.89
2024-01-11T19:37:12.725Z,60.03
2024-01-11T19:39:53.171Z,59.36
2024-01-11T19:42:25.664Z,59.72
2024-01-11T19:44:58.315Z,59.11
2024-01-11T19:47:31.782Z,59.12
2024-01-11T19:50:04.186Z,59.53
2024-01-11T19:52:36.310Z,60.41
2024-01-11T19:55:09.660Z,59.28
2024-01-11T19:57:43.232Z,59.27
2024-01-11T20:00:18.282Z,60.39
2024-01-11T20:02:50.950Z,58.77
2024-01-11T20:05:23.420Z,58.50
2024-01-11T20:07:55.219Z,59.58
2024-01-11T20:10:32.596Z,58.91
2024-01-11T20:13:05.280Z,59.32
2024-01-11T20:15:41.142Z,59.71
2024-01-11T20:18:13.669Z,60.17
2024-01-11T20:20:46.248Z,59.85
2024-01-11T20:23:18.505Z,60.60
2024-01-11T20:25:54.807Z,59.18
2024-01-11T20:28:27.573Z,59.79
2024-01-11T20:31:00.046Z,59.91
2024-01-11T20:33:32.533Z,61.07
2024-01-11T20:36:07.147Z,61.49
2024-01-11T20:38:39.621Z,61.30
2024-01-11T20:41:15.122Z,61.39
2024-01-11T20:43:47.319Z,60.51
2024-01-11T20:46:24.201Z,61.06
2024-01-11T20:48:56.262Z,60.28
2024-01-11T20:51:28.310Z,60.83
2024-01-11T20:54:02.250Z,61.05
2024-01-11T20:56:34.725Z,60.60
2024-01-11T20:59:06.615Z,61.23
2024-01-11T21:01:38.711Z,60.45
2024-01-11T21:04:10.869Z,61.12
2024-01-11T21:06:43.734Z,62.11
2024-01-11T21:09:15.834Z,63.16
2024-01-11T21:11:48.136Z,63.29
2024-01-11T21:14:21.045Z,62.59
2024-01-11T21:17:00.565Z,63.71
2024-01-11T21:19:32.796Z,63.11
2024-01-11T21:22:05.710Z,63.20
2024-01-11T21:24:38.694Z,62.73
2024-01-11T21:27:10.850Z,62.72
2024-01-11T21:29:43.359Z,64.32
2024-01-11T21:32:16.121Z,62.26
2024-01-11T21:34:49.602Z,61.46
2024-01-11T21:37:21.991Z,61.68
2024-01-11T21:39:58.096Z,62.88
2024-01-11T21:42:33.162Z,62.22
2024-01-11T21:45:09.828Z,64.24
2024-01-11T21:47:42.713Z,63.94
2024-01-11T21:50:15.704Z,63.66
2024-01-11T21:52:48.312Z,63.19
2024-01-11T21:55:20.503Z,62.74
2024-01-11T21:57:52.748Z,64.18
2024-01-11T22:00:24.695Z,63.79
2024-01-11T22:02:57.470Z,63.29
2024-01-11T22:05:29.675Z,64.32
2024-01-11T22:08:02.954Z,63.41
2024-01-11T22:10:34.721Z,64.14
2024-01-11T22:13:07.551Z,63.86
2024-01-11T22:15:40.160Z,63.86
2024-01-11T22:18:12.620Z,63.32
2024-01-11T22:20:45.030Z,63.11
2024-01-11T22:23:17.074Z,64.04
2024-01-11T22:25:49.193Z,62.66
2024-01-11T22:28:21.664Z,63.80
2024-01-11T22:30:54.141Z,63.68
2024-01-11T22:33:26.085Z,63.78
2024-01-11T22:35:58.120Z,63.29
2024-01-11T22:38:30.848Z,62.99
2024-01-11T22:41:03.657Z,62.40
2024-01-11T22:43:37.793Z,62.21
2024-01-11T22:46:10.108Z,63.23
2024-01-11T22:48:43.029Z,63.06
2024-01-11T22:51:15.951Z,63.13
2024-01-11T22:53:48.325Z,63.68
2024-01-11T22:56:20.425Z,62.66
2024-01-11T22:58:53.054Z,62.43
2024-01-11T23:01:25.133Z,62.52
2024-01-11T23:03:58.045Z,62.83
2024-01-11T23:06:30.545Z,62.41
2024-01-11T23:09:02.929Z,62.34
2024-01-11T23:11:34.880Z,64.34
2024-01-11T23:14:07.034Z,63.45
2024-01-11T23:16:39.352Z,64.31
2024-01-11T23:19:11.437Z,63.90
2024-01-11T23:21:43.753Z,63.18
2024-01-11T23:24:16.083Z,63.14
2024-01-11T23:26:48.279Z,63.00
2024-01-11T23:29:20.598Z,63.71
2024-01-11T23:31:52.513Z,63.65
2024-01-11T23:34:24.696Z,63.34
2024-01-11T23:36:56.522Z,63.37
2024-01-11T23:39:28.880Z,63.98
2024-01-11T23:42:00.848Z,63.66
2024-01-11T23:44:32.807Z,64.09
2024-01-11T23:47:04.707Z,64.50
2024-01-11T23:49:36.786Z,63.83
2024-01-11T23:52:10.096Z,63.93
2024-01-11T23:54:42.083Z,64.00
2024-01-11T23:57:14.408Z,64.73
2024-01-11T23:59:46.962Z,65.45
